Time;durP1;ratioP1;P1;durP2;ratioP2;P2;SDS_P1;SDS_P2;PMS_P1;PMS_P2;Temp;Humidity;BMP_temperature;BMP_pressure;BME280_temperature;BME280_humidity;BME280_pressure;Samples;Min_cycle;Max_cycle;Signal;HPM_P1;HPM_P2
2022/01/06 00:00:15;;;;;;;14.50;4.22;;;;;;;-1.12;73.22;100551.31;4948516;28;20105;-55
2022/01/06 00:02:41;;;;;;;13.32;4.45;;;;;;;-1.15;73.47;100544.38;4942152;28;20055;-52
2022/01/06 00:05:09;;;;;;;21.45;5.63;;;;;;;-1.15;73.68;100549.44;4942863;28;20051;-53
2022/01/06 00:07:35;;;;;;;18.85;6.00;;;;;;;-1.17;73.28;100556.16;4946024;29;20105;-47
2022/01/06 00:10:05;;;;;;;18.00;5.88;;;;;;;-1.20;73.58;100553.44;4964681;28;20725;-49
2022/01/06 00:12:40;;;;;;;19.67;6.38;;;;;;;-1.21;73.67;100546.59;4966367;28;20442;-56
2022/01/06 00:15:25;;;;;;;18.35;4.82;;;;;;;-1.22;73.46;100560.13;4965537;28;20059;-47
2022/01/06 00:18:14;;;;;;;14.95;4.93;;;;;;;-1.23;74.14;100554.16;4965120;28;20063;-53
2022/01/06 00:23:34;;;;;;;11.40;5.45;;;;;;;-1.25;73.47;100565.88;4962652;28;20118;-56
2022/01/06 00:26:02;;;;;;;12.50;4.22;;;;;;;-1.25;73.27;100557.41;4962772;28;20070;-51
2022/01/06 00:28:29;;;;;;;15.43;5.05;;;;;;;-1.27;73.80;100567.50;4964058;28;20094;-50
2022/01/06 00:30:55;;;;;;;15.23;5.03;;;;;;;-1.27;74.07;100561.50;4964018;28;20482;-51
2022/01/06 00:33:23;;;;;;;8.13;3.15;;;;;;;-1.28;73.38;100564.84;4954453;28;20055;-46
2022/01/06 00:35:50;;;;;;;12.00;3.72;;;;;;;-1.31;73.99;100566.44;4941490;28;20548;-50
2022/01/06 00:38:17;;;;;;;15.05;4.30;;;;;;;-1.33;73.61;100573.13;4942662;28;20050;-52
2022/01/06 00:40:44;;;;;;;13.95;5.20;;;;;;;-1.34;73.85;100568.84;4945689;28;20134;-48
2022/01/06 00:43:11;;;;;;;11.20;4.72;;;;;;;-1.36;73.94;100578.03;4941367;28;20051;-51
2022/01/06 00:45:38;;;;;;;16.20;5.53;;;;;;;-1.38;73.98;100573.66;4942042;28;20048;-54
2022/01/06 00:48:07;;;;;;;17.42;5.38;;;;;;;-1.41;73.81;100569.28;4941623;28;20046;-53
2022/01/06 00:50:34;;;;;;;14.25;4.45;;;;;;;-1.42;74.09;100573.47;4945723;28;20062;-54
2022/01/06 00:53:04;;;;;;;23.42;6.60;;;;;;;-1.44;74.00;100569.13;4942486;28;20114;-51
2022/01/06 00:55:32;;;;;;;15.55;5.20;;;;;;;-1.46;73.27;100566.50;4942984;28;20052;-48
2022/01/06 00:58:00;;;;;;;14.50;4.22;;;;;;;-1.48;74.03;100568.09;4946539;28;20055;-57
2022/01/06 01:00:31;;;;;;;14.73;4.68;;;;;;;-1.51;73.72;100559.41;4940422;28;20467;-50
2022/01/06 01:02:58;;;;;;;5.80;2.70;;;;;;;-1.52;74.11;100557.66;4953609;28;20047;-51
2022/01/06 01:05:25;;;;;;;16.95;3.50;;;;;;;-1.55;74.37;100556.69;4963901;28;20062;-53
2022/01/06 01:07:51;;;;;;;10.02;3.17;;;;;;;-1.59;73.80;100548.84;4964875;28;20055;-48
2022/01/06 01:10:18;;;;;;;18.58;3.97;;;;;;;-1.61;73.65;100550.41;4965670;28;20055;-51
2022/01/06 01:12:47;;;;;;;8.05;2.95;;;;;;;-1.64;73.64;100551.13;4962924;28;20050;-49
2022/01/06 01:15:20;;;;;;;11.80;3.30;;;;;;;-1.64;73.88;100550.22;4961961;28;20491;-56
2022/01/06 01:17:48;;;;;;;11.98;4.15;;;;;;;-1.67;74.54;100543.31;4964372;28;20109;-50
2022/01/06 01:20:18;;;;;;;10.93;3.75;;;;;;;-1.68;73.49;100559.34;4961253;28;20058;-52
2022/01/06 01:22:45;;;;;;;13.43;3.50;;;;;;;-1.71;74.41;100556.66;4960015;28;20142;-51
2022/01/06 01:25:13;;;;;;;11.73;3.17;;;;;;;-1.73;74.35;100550.59;4962920;28;20093;-46
2022/01/06 01:27:42;;;;;;;7.38;3.72;;;;;;;-1.73;74.27;100545.50;4961225;28;20101;-54
2022/01/06 01:30:14;;;;;;;13.50;4.53;;;;;;;-1.76;74.37;100540.28;4963775;28;20102;-50
2022/01/06 01:32:49;;;;;;;11.20;3.72;;;;;;;-1.78;74.12;100539.31;4963926;28;20461;-51
2022/01/06 01:35:16;;;;;;;10.60;3.60;;;;;;;-1.79;74.19;100535.03;4963027;28;20047;-50
2022/01/06 01:37:43;;;;;;;9.65;3.92;;;;;;;-1.81;73.82;100530.75;4964677;28;20105;-49
2022/01/06 01:40:11;;;;;;;10.00;3.70;;;;;;;-1.81;74.04;100528.22;4967061;28;20087;-49
2022/01/06 01:42:40;;;;;;;10.23;4.18;;;;;;;-1.82;74.69;100531.53;4961143;28;20046;-54
2022/01/06 01:45:08;;;;;;;11.57;3.75;;;;;;;-1.84;74.11;100528.03;4943036;28;20039;-50
2022/01/06 01:47:42;;;;;;;12.00;3.58;;;;;;;-1.87;74.22;100522.78;4963720;28;20047;-55
2022/01/06 01:50:13;;;;;;;9.50;3.92;;;;;;;-1.92;74.42;100529.28;4964608;28;20105;-50
2022/01/06 01:52:41;;;;;;;14.65;4.90;;;;;;;-1.96;74.36;100522.28;4965675;28;20116;-49
2022/01/06 01:55:09;;;;;;;6.65;3.35;;;;;;;-1.99;74.51;100522.97;4961436;28;20117;-51
2022/01/06 01:57:36;;;;;;;8.95;4.20;;;;;;;-2.00;74.02;100525.41;4959313;28;20678;-57
2022/01/06 02:00:06;;;;;;;11.98;3.88;;;;;;;-2.03;74.52;100522.72;4965687;28;20054;-55
2022/01/06 02:02:35;;;;;;;13.50;4.13;;;;;;;-2.07;74.47;100514.94;4960224;28;20078;-48
2022/01/06 02:05:04;;;;;;;11.55;3.65;;;;;;;-2.10;73.76;100519.81;4963988;28;20047;-55
2022/01/06 02:07:32;;;;;;;8.70;3.90;;;;;;;-2.12;74.65;100526.50;4960053;28;20066;-50
2022/01/06 02:10:00;;;;;;;13.05;3.50;;;;;;;-2.15;74.76;100526.31;4964790;28;20703;-51
2022/01/06 02:12:31;;;;;;;10.55;3.58;;;;;;;-2.17;74.48;100521.94;4957551;28;20074;-51
2022/01/06 02:14:58;;;;;;;15.00;4.50;;;;;;;-2.18;75.38;100533.75;4963813;28;20105;-50
2022/01/06 02:17:25;;;;;;;12.95;3.15;;;;;;;-2.17;75.21;100535.50;4959609;28;20101;-51
2022/01/06 02:19:54;;;;;;;9.18;3.10;;;;;;;-2.17;75.06;100535.50;4964416;28;20049;-51
2022/01/06 02:22:21;;;;;;;12.98;4.35;;;;;;;-2.16;74.90;100544.84;4961432;28;20047;-53
2022/01/06 02:24:48;;;;;;;12.02;4.07;;;;;;;-2.17;75.77;100543.09;4966308;28;20091;-51
2022/01/06 02:27:15;;;;;;;10.85;3.88;;;;;;;-2.16;74.53;100533.84;4966313;28;20082;-52
2022/01/06 02:29:43;;;;;;;14.13;4.00;;;;;;;-2.17;75.38;100527.88;4970438;28;20054;-57
2022/01/06 02:32:10;;;;;;;14.80;4.18;;;;;;;-2.17;74.87;100527.88;4968853;28;20623;-48
2022/01/06 02:34:37;;;;;;;14.40;3.55;;;;;;;-2.18;75.21;100523.59;4967040;28;20714;-50
2022/01/06 02:37:04;;;;;;;9.13;3.92;;;;;;;-2.18;75.37;100526.13;4966254;28;20054;-55
2022/01/06 02:39:30;;;;;;;13.95;4.20;;;;;;;-2.18;74.62;100525.25;4968377;28;20113;-47
2022/01/06 02:41:57;;;;;;;12.82;4.15;;;;;;;-2.20;74.88;100528.59;4966331;28;20885;-48
2022/01/06 02:44:25;;;;;;;10.45;3.53;;;;;;;-2.21;75.14;100515.81;4970112;28;20050;-56
2022/01/06 02:46:53;;;;;;;11.93;3.92;;;;;;;-2.21;75.30;100523.41;4963909;28;20125;-46
2022/01/06 02:49:20;;;;;;;10.55;3.50;;;;;;;-2.22;74.88;100524.22;4966071;28;20046;-51
2022/01/06 02:51:47;;;;;;;13.45;4.70;;;;;;;-2.23;74.91;100513.19;4967030;28;20051;-52
2022/01/06 02:54:14;;;;;;;10.55;4.07;;;;;;;-2.24;75.10;100516.50;4966216;28;20541;-50
2022/01/06 02:56:43;;;;;;;12.75;3.90;;;;;;;-2.23;75.04;100525.88;4965946;28;20055;-51
2022/01/06 02:59:10;;;;;;;14.88;5.45;;;;;;;-2.23;75.32;100517.41;4970305;28;20439;-51
2022/01/06 03:01:38;;;;;;;8.75;3.28;;;;;;;-2.23;76.00;100519.94;4963854;28;20070;-51
2022/01/06 03:04:06;;;;;;;14.52;4.40;;;;;;;-2.22;75.83;100511.53;4981301;28;20051;-51
2022/01/06 03:06:32;;;;;;;8.38;4.30;;;;;;;-2.21;76.05;100505.66;4966893;28;20888;-51
2022/01/06 03:08:59;;;;;;;16.55;5.22;;;;;;;-2.21;75.42;100500.59;4964430;28;20050;-54
2022/01/06 03:11:26;;;;;;;10.57;3.95;;;;;;;-2.21;76.43;100505.66;4968098;28;20046;-50
2022/01/06 03:13:54;;;;;;;9.25;3.90;;;;;;;-2.21;75.88;100501.47;4962960;28;20542;-47
2022/01/06 03:16:20;;;;;;;12.95;4.00;;;;;;;-2.20;76.40;100505.75;4969264;28;20050;-50
2022/01/06 03:18:48;;;;;;;9.40;3.75;;;;;;;-2.20;76.11;100508.28;4965166;28;20068;-52
2022/01/06 03:21:14;;;;;;;21.75;4.60;;;;;;;-2.19;76.35;100499.03;4966505;28;20429;-50
2022/01/06 03:23:41;;;;;;;15.32;3.92;;;;;;;-2.19;76.71;100501.56;4963633;28;20047;-51
2022/01/06 03:26:08;;;;;;;14.95;4.75;;;;;;;-2.18;75.61;100505.84;4967860;28;20047;-52
2022/01/06 03:28:34;;;;;;;12.20;4.20;;;;;;;-2.18;76.01;100503.28;4967574;28;20684;-55
2022/01/06 03:31:01;;;;;;;14.23;4.97;;;;;;;-2.20;76.14;100509.94;4969179;28;20055;-50
2022/01/06 03:33:28;;;;;;;20.15;6.30;;;;;;;-2.22;76.75;100509.00;4965475;28;20973;-53
2022/01/06 03:35:54;;;;;;;21.52;5.30;;;;;;;-2.25;76.77;100517.31;4966156;28;20047;-51
2022/01/06 03:38:21;;;;;;;14.57;4.85;;;;;;;-2.25;76.58;100514.78;4966937;28;20096;-49
2022/01/06 03:40:48;;;;;;;15.65;4.47;;;;;;;-2.27;76.00;100511.25;4966429;28;20051;-48
2022/01/06 03:43:15;;;;;;;15.63;5.13;;;;;;;-2.28;76.76;100498.47;4966228;28;20106;-56
2022/01/06 03:45:42;;;;;;;11.93;4.55;;;;;;;-2.29;76.72;100502.69;4964472;28;20075;-46
2022/01/06 03:48:09;;;;;;;14.10;4.97;;;;;;;-2.30;76.63;100495.00;4967343;28;20077;-47
2022/01/06 03:50:35;;;;;;;19.80;5.03;;;;;;;-2.34;76.01;100494.81;4967370;28;20428;-52
2022/01/06 03:53:02;;;;;;;10.82;3.97;;;;;;;-2.32;76.69;100492.38;4962583;28;20054;-50
2022/01/06 03:55:28;;;;;;;16.95;4.63;;;;;;;-2.32;76.77;100488.16;4968160;28;20074;-47
2022/01/06 03:57:55;;;;;;;20.67;4.13;;;;;;;-2.32;75.74;100484.75;4963037;28;20051;-52
2022/01/06 04:00:22;;;;;;;13.13;4.88;;;;;;;-2.33;76.94;100486.41;4965417;28;20443;-49
2022/01/06 04:02:49;;;;;;;12.75;4.55;;;;;;;-2.33;76.11;100486.41;4964305;28;20122;-49
2022/01/06 04:05:16;;;;;;;11.63;4.35;;;;;;;-2.34;76.13;100484.66;4965660;28;20105;-50
2022/01/06 04:07:43;;;;;;;8.40;3.90;;;;;;;-2.34;76.94;100487.19;4963549;28;20226;-49
2022/01/06 04:10:10;;;;;;;18.52;4.72;;;;;;;-2.34;76.22;100479.59;4967758;28;20051;-50
2022/01/06 04:12:38;;;;;;;11.23;5.05;;;;;;;-2.35;77.18;100488.00;4964016;28;20059;-55
2022/01/06 04:15:11;;;;;;;16.48;4.68;;;;;;;-2.37;76.72;100481.94;4968228;28;20055;-54
2022/01/06 04:17:38;;;;;;;12.95;5.47;;;;;;;-2.36;75.83;100475.22;4963506;28;21238;-47
2022/01/06 04:20:07;;;;;;;14.45;4.18;;;;;;;-2.37;76.19;100476.88;4981347;28;20046;-52
2022/01/06 04:22:35;;;;;;;11.85;3.85;;;;;;;-2.36;76.15;100476.09;4963850;28;20081;-49
2022/01/06 04:25:02;;;;;;;22.20;4.35;;;;;;;-2.36;76.73;100475.22;4967551;28;20109;-48
2022/01/06 04:27:29;;;;;;;17.27;4.88;;;;;;;-2.37;76.84;100471.81;4964587;28;20055;-46
2022/01/06 04:29:56;;;;;;;12.63;4.30;;;;;;;-2.37;76.88;100464.19;4963364;28;20089;-51
2022/01/06 04:32:22;;;;;;;9.82;4.47;;;;;;;-2.36;76.02;100462.53;4969550;28;20039;-48
2022/01/06 04:34:49;;;;;;;9.10;3.53;;;;;;;-2.36;76.44;100471.00;4961488;28;20101;-51
2022/01/06 04:37:15;;;;;;;8.52;4.05;;;;;;;-2.36;76.99;100468.47;4963058;28;20055;-51
2022/01/06 04:39:42;;;;;;;11.18;4.53;;;;;;;-2.36;76.99;100465.94;4966646;28;20062;-50
2022/01/06 04:42:09;;;;;;;22.35;4.18;;;;;;;-2.35;76.07;100455.00;4965533;28;20113;-47
2022/01/06 04:44:35;;;;;;;9.98;3.35;;;;;;;-2.34;76.04;100456.75;4966344;28;20069;-48
2022/01/06 04:47:02;;;;;;;15.02;4.00;;;;;;;-2.32;75.88;100456.84;4964512;28;20059;-56
2022/01/06 04:49:29;;;;;;;13.73;3.65;;;;;;;-2.30;76.85;100459.47;4966182;28;20055;-45
2022/01/06 04:51:56;;;;;;;12.13;3.67;;;;;;;-2.29;76.97;100453.59;4965700;28;20055;-51
2022/01/06 04:54:22;;;;;;;15.00;3.58;;;;;;;-2.29;76.49;100446.88;4966721;28;20101;-53
2022/01/06 04:56:49;;;;;;;15.85;3.88;;;;;;;-2.27;75.86;100449.50;4963137;28;20054;-51
2022/01/06 04:59:15;;;;;;;9.65;3.65;;;;;;;-2.28;76.45;100440.13;4966192;28;20051;-47
2022/01/06 05:01:42;;;;;;;14.90;3.85;;;;;;;-2.29;75.70;100426.56;4965625;28;20059;-46
2022/01/06 05:04:09;;;;;;;19.80;3.92;;;;;;;-2.28;76.49;100427.44;4961067;28;20042;-50
2022/01/06 05:06:36;;;;;;;12.07;3.80;;;;;;;-2.29;75.84;100428.22;4965669;28;20050;-48
2022/01/06 05:09:03;;;;;;;10.02;3.45;;;;;;;-2.29;75.73;100430.75;4963557;28;20051;-52
2022/01/06 05:11:30;;;;;;;9.68;3.25;;;;;;;-2.30;75.95;100429.03;4964043;28;20046;-50
2022/01/06 05:13:57;;;;;;;8.20;2.78;;;;;;;-2.33;75.82;100425.50;4975379;28;20055;-49
2022/01/06 05:16:23;;;;;;;9.05;2.47;;;;;;;-2.32;76.71;100427.25;4966295;28;20050;-48
2022/01/06 05:18:50;;;;;;;9.73;2.97;;;;;;;-2.30;75.93;100429.03;4961658;28;20054;-51
2022/01/06 05:21:17;;;;;;;6.13;2.83;;;;;;;-2.33;76.94;100425.50;4963981;28;21326;-52
2022/01/06 05:23:43;;;;;;;7.80;2.65;;;;;;;-2.31;76.89;100420.53;4961569;28;20059;-49
2022/01/06 05:26:10;;;;;;;8.23;1.98;;;;;;;-2.29;76.38;100421.50;4964647;28;20075;-51
2022/01/06 05:28:37;;;;;;;7.07;2.47;;;;;;;-2.29;76.92;100415.53;4963316;28;20483;-53
2022/01/06 05:31:04;;;;;;;11.27;2.63;;;;;;;-2.27;76.84;100413.97;4965967;28;20047;-56
2022/01/06 05:33:31;;;;;;;7.15;2.92;;;;;;;-2.28;76.30;100412.19;4964616;28;20043;-45
2022/01/06 05:35:57;;;;;;;14.38;2.45;;;;;;;-2.28;76.70;100417.28;4964648;28;20443;-50
2022/01/06 05:38:24;;;;;;;9.70;2.75;;;;;;;-2.29;76.08;100415.53;4964518;28;20067;-51
2022/01/06 05:40:50;;;;;;;11.38;2.47;;;;;;;-2.29;76.30;100415.53;4965405;28;20062;-46
2022/01/06 05:43:19;;;;;;;12.60;2.17;;;;;;;-2.30;76.23;100418.88;4960558;28;20646;-51
2022/01/06 05:45:48;;;;;;;9.60;2.92;;;;;;;-2.33;76.54;100420.44;4964392;28;20050;-48
2022/01/06 05:48:15;;;;;;;7.80;2.42;;;;;;;-2.32;76.26;100424.72;4963167;28;20054;-51
2022/01/06 05:50:41;;;;;;;7.47;2.75;;;;;;;-2.30;75.85;100429.03;4961858;28;20102;-52
2022/01/06 05:53:08;;;;;;;6.80;1.85;;;;;;;-2.29;76.01;100429.09;4962712;28;20647;-49
2022/01/06 05:55:35;;;;;;;6.95;2.38;;;;;;;-2.28;76.23;100424.88;4964203;28;20101;-51
2022/01/06 05:58:02;;;;;;;11.00;2.15;;;;;;;-2.28;76.49;100422.34;4963303;28;20425;-58
2022/01/06 06:00:29;;;;;;;9.70;2.15;;;;;;;-2.28;76.52;100432.50;4961639;28;20055;-47
2022/01/06 06:02:56;;;;;;;9.85;3.10;;;;;;;-2.28;75.90;100432.50;4963517;28;20130;-49
2022/01/06 06:05:23;;;;;;;10.18;3.72;;;;;;;-2.28;76.35;100417.28;4966612;28;20042;-48
2022/01/06 06:07:50;;;;;;;11.45;2.63;;;;;;;-2.29;76.14;100415.53;4960425;28;20681;-54
2022/01/06 06:10:17;;;;;;;5.93;1.90;;;;;;;-2.29;76.63;100411.34;4965318;28;20110;-54
2022/01/06 06:12:43;;;;;;;6.90;1.73;;;;;;;-2.30;75.50;100414.66;4963621;28;20103;-46
2022/01/06 06:15:12;;;;;;;5.93;1.77;;;;;;;-2.29;76.29;100410.47;4961492;28;20042;-46
2022/01/06 06:17:39;;;;;;;11.30;1.45;;;;;;;-2.29;76.45;100406.28;4962766;28;20077;-48
2022/01/06 06:20:06;;;;;;;3.88;1.65;;;;;;;-2.29;75.62;100402.84;4961439;28;20043;-46
2022/01/06 06:22:33;;;;;;;8.85;1.42;;;;;;;-2.30;76.19;100404.50;4964151;28;20054;-51
2022/01/06 06:24:59;;;;;;;3.85;1.63;;;;;;;-2.30;75.70;100398.56;4964252;28;20043;-52
2022/01/06 06:27:29;;;;;;;6.13;1.40;;;;;;;-2.32;76.21;100396.81;4963078;28;20058;-55
2022/01/06 06:29:56;;;;;;;5.72;1.33;;;;;;;-2.31;75.67;100397.69;4963953;28;20058;-48
2022/01/06 06:32:22;;;;;;;6.78;1.20;;;;;;;-2.30;75.38;100393.50;4963346;28;20059;-45
2022/01/06 06:34:49;;;;;;;6.97;1.77;;;;;;;-2.32;75.75;100386.66;4963525;28;20349;-48
2022/01/06 06:37:15;;;;;;;8.55;1.17;;;;;;;-2.33;75.51;100384.91;4964712;28;20054;-49
2022/01/06 06:39:42;;;;;;;4.68;1.45;;;;;;;-2.34;75.33;100393.31;4963122;28;20399;-52
2022/01/06 06:42:09;;;;;;;5.35;1.23;;;;;;;-2.35;75.96;100386.50;4963150;28;20046;-48
2022/01/06 06:44:35;;;;;;;5.38;1.17;;;;;;;-2.35;75.20;100381.44;4963765;28;20047;-45
2022/01/06 06:47:03;;;;;;;6.82;1.25;;;;;;;-2.36;76.42;100383.88;4961650;28;20058;-49
2022/01/06 06:49:29;;;;;;;8.38;1.92;;;;;;;-2.37;76.10;100377.03;4963459;28;20047;-52
2022/01/06 06:51:56;;;;;;;6.07;1.58;;;;;;;-2.40;75.91;100382.81;4965291;28;20050;-50
2022/01/06 06:54:23;;;;;;;5.93;1.08;;;;;;;-2.40;75.95;100380.28;4966782;28;20051;-47
2022/01/06 06:56:49;;;;;;;5.80;1.15;;;;;;;-2.40;75.54;100379.44;4959737;28;20051;-45
2022/01/06 06:59:21;;;;;;;5.80;1.45;;;;;;;-2.41;76.15;100388.69;4962471;28;20051;-46
2022/01/06 07:01:47;;;;;;;5.65;1.60;;;;;;;-2.42;75.54;100386.97;4962086;28;20102;-46
2022/01/06 07:04:14;;;;;;;7.78;1.20;;;;;;;-2.43;76.31;100377.59;4965665;28;20050;-51
2022/01/06 07:07:01;;;;;;;2.83;1.52;;;;;;;-2.45;75.49;100379.16;4963280;28;20484;-46
2022/01/06 07:09:27;;;;;;;8.43;1.83;;;;;;;-2.45;75.55;100386.78;4961802;28;20043;-51
2022/01/06 07:11:54;;;;;;;7.05;1.83;;;;;;;-2.46;76.29;100382.50;4960034;28;20060;-53
2022/01/06 07:14:21;;;;;;;5.10;1.85;;;;;;;-2.44;76.25;100385.97;4965709;28;20471;-48
2022/01/06 07:16:47;;;;;;;7.70;1.83;;;;;;;-2.46;75.44;100393.50;4968655;28;20046;-46
2022/01/06 07:19:15;;;;;;;9.18;1.63;;;;;;;-2.47;75.95;100390.88;4966674;28;20058;-50
2022/01/06 07:21:41;;;;;;;6.38;0.93;;;;;;;-2.45;75.53;100396.94;4965289;28;20101;-49
2022/01/06 07:24:08;;;;;;;7.40;1.08;;;;;;;-2.44;76.37;100391.06;4971915;28;20097;-53
2022/01/06 07:26:35;;;;;;;16.23;2.22;;;;;;;-2.43;75.75;100399.56;4967198;28;20050;-49
2022/01/06 07:29:02;;;;;;;5.78;1.15;;;;;;;-2.43;76.40;100397.91;4963385;28;20407;-50
2022/01/06 07:31:29;;;;;;;4.20;1.00;;;;;;;-2.44;75.39;100396.13;4966963;28;20125;-53
2022/01/06 07:33:56;;;;;;;9.75;1.40;;;;;;;-2.44;76.04;100396.13;4965892;28;20062;-52
2022/01/06 07:36:22;;;;;;;8.13;1.10;;;;;;;-2.45;75.43;100404.53;4964495;28;20051;-48
2022/01/06 07:38:49;;;;;;;6.05;0.70;;;;;;;-2.46;75.72;100390.97;4962039;28;20121;-51
2022/01/06 07:41:16;;;;;;;5.95;2.22;;;;;;;-2.48;75.69;100384.06;4965485;28;20099;-48
2022/01/06 07:43:43;;;;;;;6.85;1.33;;;;;;;-2.47;75.96;100385.81;4963047;28;20063;-50
2022/01/06 07:46:10;;;;;;;5.15;1.00;;;;;;;-2.48;75.98;100379.88;4962880;28;20661;-45
2022/01/06 07:48:48;;;;;;;3.80;1.25;;;;;;;-2.46;75.64;100377.44;4960552;28;20047;-49
2022/01/06 07:51:15;;;;;;;4.25;1.35;;;;;;;-2.46;76.06;100367.28;4960380;28;20055;-46
2022/01/06 07:53:42;;;;;;;6.05;1.67;;;;;;;-2.44;76.93;100365.69;4961616;28;20129;-50
2022/01/06 07:56:08;;;;;;;7.63;1.30;;;;;;;-2.40;76.14;100357.44;4954902;28;20051;-53
2022/01/06 07:58:35;;;;;;;8.02;0.98;;;;;;;-2.41;75.83;100350.63;4964068;28;20471;-50
2022/01/06 08:01:02;;;;;;;6.18;1.15;;;;;;;-2.39;76.95;100361.75;4957603;28;21318;-48
2022/01/06 08:03:30;;;;;;;4.57;1.30;;;;;;;-2.38;76.11;100360.06;4958214;28;20105;-49
2022/01/06 08:05:56;;;;;;;6.78;1.13;;;;;;;-2.36;76.63;100351.75;4961397;28;20107;-51
2022/01/06 08:08:23;;;;;;;2.15;0.90;;;;;;;-2.36;76.05;100346.69;4961401;28;20611;-50
2022/01/06 08:10:50;;;;;;;12.02;3.47;;;;;;;-2.31;76.85;100334.25;4958408;28;20058;-51
2022/01/06 08:13:16;;;;;;;16.02;7.78;;;;;;;-2.30;75.79;100345.28;4961170;28;20054;-46
2022/01/06 08:15:43;;;;;;;14.48;5.82;;;;;;;-2.26;76.91;100334.50;4961141;28;20105;-49
2022/01/06 08:18:10;;;;;;;15.15;5.00;;;;;;;-2.22;76.38;100327.16;4959331;28;20051;-52
2022/01/06 08:20:38;;;;;;;12.15;3.42;;;;;;;-2.17;75.92;100327.38;4963878;28;21250;-47
2022/01/06 08:23:06;;;;;;;8.55;2.40;;;;;;;-2.09;76.40;100322.72;4962303;28;20049;-49
2022/01/06 08:25:33;;;;;;;6.07;2.00;;;;;;;-2.02;76.74;100316.28;4961024;28;20054;-47
2022/01/06 08:28:00;;;;;;;4.43;1.60;;;;;;;-1.90;76.46;100323.69;4960966;28;20051;-51
2022/01/06 08:30:26;;;;;;;6.85;1.80;;;;;;;-1.76;76.14;100312.56;4960368;28;20109;-50
2022/01/06 08:32:55;;;;;;;5.40;1.17;;;;;;;-1.61;76.33;100309.97;4963158;28;20113;-49
2022/01/06 08:35:22;;;;;;;5.88;1.42;;;;;;;-1.33;76.02;100313.00;4966144;28;20054;-45
2022/01/06 08:37:49;;;;;;;7.63;1.20;;;;;;;-1.07;75.84;100293.97;4962127;28;20054;-51
2022/01/06 08:40:16;;;;;;;7.38;1.10;;;;;;;-0.80;75.43;100303.72;4960688;28;20082;-57
2022/01/06 08:42:43;;;;;;;5.43;0.88;;;;;;;-0.51;75.06;100293.13;4965301;28;20105;-48
2022/01/06 08:45:10;;;;;;;6.75;0.95;;;;;;;-0.05;75.02;100281.63;4965245;28;20101;-54
2022/01/06 08:47:36;;;;;;;4.00;1.40;;;;;;;0.49;74.67;100293.28;4964370;28;20106;-52
2022/01/06 08:50:04;;;;;;;8.10;1.60;;;;;;;1.01;73.72;100283.47;4965608;28;20070;-52
2022/01/06 08:52:30;;;;;;;5.25;1.00;;;;;;;1.43;71.78;100274.00;4967539;28;20447;-51
2022/01/06 08:54:57;;;;;;;3.83;1.55;;;;;;;1.70;69.97;100270.75;4958547;28;20058;-55
2022/01/06 08:57:24;;;;;;;4.18;1.08;;;;;;;2.10;69.95;100270.47;4961979;28;20471;-55
2022/01/06 08:59:50;;;;;;;5.57;0.80;;;;;;;2.41;69.94;100264.75;4963305;28;20450;-50
2022/01/06 09:02:17;;;;;;;4.72;1.55;;;;;;;2.60;69.12;100264.47;4963536;28;20113;-49
2022/01/06 09:04:44;;;;;;;7.88;1.20;;;;;;;2.83;68.50;100257.53;4960241;28;20046;-47
2022/01/06 09:07:10;;;;;;;6.05;1.10;;;;;;;3.24;68.08;100252.00;4965406;28;20142;-54
2022/01/06 09:09:39;;;;;;;4.20;1.30;;;;;;;3.30;67.61;100241.94;4964722;28;20562;-50
2022/01/06 09:12:08;;;;;;;6.53;1.40;;;;;;;3.42;66.32;100245.69;4960664;28;20565;-52
2022/01/06 09:14:34;;;;;;;5.40;1.02;;;;;;;3.77;66.46;100238.16;4963892;28;20047;-51
2022/01/06 09:17:01;;;;;;;4.90;1.30;;;;;;;4.24;66.89;100234.28;4962787;28;20055;-49
2022/01/06 09:19:28;;;;;;;4.60;0.80;;;;;;;4.42;64.60;100240.72;4963249;28;20711;-55
2022/01/06 09:21:55;;;;;;;5.50;1.15;;;;;;;4.87;63.87;100237.53;4963154;28;20055;-53
2022/01/06 09:24:21;;;;;;;5.43;1.60;;;;;;;5.14;61.79;100236.44;4963115;28;20109;-53
2022/01/06 09:26:48;;;;;;;4.38;1.35;;;;;;;5.32;63.68;100245.41;4963248;28;20113;-55
2022/01/06 09:29:15;;;;;;;5.47;2.03;;;;;;;5.63;61.67;100235.78;4964370;28;20474;-52
2022/01/06 09:31:42;;;;;;;5.95;1.35;;;;;;;6.09;63.02;100234.97;4959411;28;20146;-52
2022/01/06 09:34:09;;;;;;;8.65;1.60;;;;;;;6.38;61.59;100234.63;4960996;28;20455;-53
2022/01/06 09:36:38;;;;;;;6.63;2.03;;;;;;;6.61;59.29;100226.44;4965237;28;20120;-54
2022/01/06 09:39:06;;;;;;;4.07;1.10;;;;;;;6.83;59.25;100224.22;4962844;28;20058;-55
2022/01/06 09:41:34;;;;;;;3.20;0.85;;;;;;;6.69;57.93;100226.56;4958899;28;20063;-49
2022/01/06 09:44:02;;;;;;;2.22;1.20;;;;;;;6.71;59.18;100218.84;4959681;28;20137;-54
2022/01/06 09:46:49;;;;;;;5.88;1.63;;;;;;;6.60;57.64;100211.84;4957346;28;20197;-54
2022/01/06 09:49:16;;;;;;;4.60;0.98;;;;;;;6.43;57.78;100212.41;4960156;28;20142;-52
2022/01/06 09:51:45;;;;;;;4.68;1.30;;;;;;;6.26;57.76;100211.25;4956723;28;20047;-51
2022/01/06 09:54:12;;;;;;;3.63;1.27;;;;;;;5.69;58.45;100200.75;4957688;28;20051;-51
2022/01/06 09:56:39;;;;;;;3.55;1.10;;;;;;;5.11;58.35;100197.88;4962794;28;20061;-58
2022/01/06 09:59:06;;;;;;;3.63;1.65;;;;;;;4.71;58.88;100197.84;4965503;28;20831;-51
2022/01/06 10:01:32;;;;;;;4.35;1.83;;;;;;;4.26;59.88;100189.06;4958812;28;20474;-52
2022/01/06 10:03:59;;;;;;;6.00;1.02;;;;;;;3.89;60.39;100190.63;4962395;28;20114;-52
2022/01/06 10:06:28;;;;;;;6.07;2.03;;;;;;;3.49;60.67;100181.03;4962935;28;20523;-52
2022/01/06 10:09:04;;;;;;;5.65;1.83;;;;;;;3.25;62.02;100166.72;4959704;28;20448;-53
2022/01/06 10:11:33;;;;;;;6.18;1.63;;;;;;;2.98;62.09;100169.31;4960298;28;20070;-58
2022/01/06 10:14:05;;;;;;;6.20;1.85;;;;;;;2.82;62.83;100156.91;4960020;28;20150;-53
2022/01/06 10:16:33;;;;;;;6.00;1.80;;;;;;;2.68;63.24;100168.41;4962452;28;20043;-54
2022/01/06 10:19:04;;;;;;;6.75;1.55;;;;;;;2.50;64.60;100164.44;4960464;28;20065;-49
2022/01/06 10:21:39;;;;;;;3.65;1.40;;;;;;;2.33;64.06;100155.38;4956729;28;20051;-54
2022/01/06 10:24:12;;;;;;;5.95;1.10;;;;;;;2.23;64.78;100144.81;4958609;28;20121;-58
2022/01/06 10:26:55;;;;;;;4.35;1.75;;;;;;;2.11;65.78;100141.88;4972380;28;20047;-53
2022/01/06 10:29:25;;;;;;;5.85;1.42;;;;;;;2.08;66.40;100128.97;4959196;28;20047;-51
2022/01/06 10:32:00;;;;;;;4.68;1.98;;;;;;;1.99;66.03;100120.19;4956402;28;20117;-58
2022/01/06 10:34:32;;;;;;;10.50;2.42;;;;;;;1.88;66.63;100111.31;4958174;28;20109;-53
2022/01/06 10:37:00;;;;;;;6.75;2.17;;;;;;;1.77;66.17;100101.63;4959494;28;20103;-50
2022/01/06 10:39:40;;;;;;;3.65;1.65;;;;;;;1.66;66.34;100090.16;4961290;28;20439;-51
2022/01/06 10:42:07;;;;;;;7.65;2.55;;;;;;;1.58;65.80;100084.78;4961628;28;20058;-54
2022/01/06 10:44:45;;;;;;;5.38;1.58;;;;;;;1.47;66.84;100069.09;4957701;28;20055;-48
2022/01/06 10:47:12;;;;;;;8.68;2.05;;;;;;;1.43;66.89;100074.03;4965167;28;20060;-51
2022/01/06 10:49:38;;;;;;;5.45;1.65;;;;;;;1.38;67.70;100084.06;4963987;28;20551;-54
2022/01/06 10:52:06;;;;;;;6.80;2.47;;;;;;;1.37;68.05;100078.13;4963912;28;20055;-54
2022/01/06 10:54:36;;;;;;;6.70;2.17;;;;;;;1.34;68.04;100082.22;4965974;28;20396;-51
2022/01/06 10:57:07;;;;;;;6.10;1.90;;;;;;;1.33;68.15;100083.06;4961760;28;20109;-51
2022/01/06 10:59:36;;;;;;;6.93;2.65;;;;;;;1.32;68.31;100084.72;4963438;28;20050;-54
2022/01/06 11:02:04;;;;;;;7.40;1.75;;;;;;;1.30;68.06;100085.50;4960536;28;20055;-58
2022/01/06 11:04:32;;;;;;;4.38;2.42;;;;;;;1.27;67.31;100081.16;4963356;28;20083;-56
2022/01/06 11:06:59;;;;;;;7.25;1.90;;;;;;;1.27;68.24;100082.03;4969674;28;20050;-51
2022/01/06 11:09:26;;;;;;;6.53;2.08;;;;;;;1.26;67.71;100072.66;4964870;28;20047;-52
2022/01/06 11:14:44;;;;;;;4.15;1.40;;;;;;;1.17;68.61;100054.44;4964638;28;21723;-57
2022/01/06 11:17:11;;;;;;;4.18;1.58;;;;;;;1.18;68.86;100051.06;4959342;28;20062;-50
2022/01/06 11:19:38;;;;;;;5.05;1.45;;;;;;;1.15;68.79;100046.72;4965917;28;20058;-58
2022/01/06 11:22:07;;;;;;;5.18;2.13;;;;;;;1.16;68.75;100042.50;4963712;28;20125;-56
2022/01/06 11:24:35;;;;;;;2.90;1.55;;;;;;;1.13;68.94;100027.09;4969478;28;20109;-56
2022/01/06 11:27:07;;;;;;;2.03;1.15;;;;;;;1.12;67.97;100022.81;4964009;28;20043;-52
2022/01/06 11:29:38;;;;;;;4.22;1.25;;;;;;;1.08;69.40;100018.41;4964732;28;20436;-57
2022/01/06 11:32:20;;;;;;;4.90;1.20;;;;;;;1.04;68.25;100027.63;4967288;28;20125;-51